sensor_id;sensor_type;location;lat;lon;timestamp;P1;durP1;ratioP1;P2;durP2;ratioP2
25419;SDS011;13354;48.174;11.566;2022-10-16T13:29:40;1.63;;;0.70;;
25419;SDS011;13354;48.174;11.566;2022-10-16T13:32:07;1.33;;;0.60;;
25419;SDS011;13354;48.174;11.566;2022-10-16T13:34:44;0.82;;;0.60;;
25419;SDS011;13354;48.174;11.566;2022-10-16T13:37:18;1.67;;;0.60;;
25419;SDS011;13354;48.174;11.566;2022-10-16T13:39:45;0.50;;;0.50;;
25419;SDS011;13354;48.174;11.566;2022-10-16T13:42:12;2.03;;;0.55;;
25419;SDS011;13354;48.174;11.566;2022-10-16T13:44:41;2.33;;;0.80;;
25419;SDS011;13354;48.174;11.566;2022-10-16T13:47:16;1.50;;;0.60;;
25419;SDS011;13354;48.174;11.566;2022-10-16T13:49:43;0.75;;;0.70;;
25419;SDS011;13354;48.174;11.566;2022-10-16T13:52:18;1.40;;;0.60;;
25419;SDS011;13354;48.174;11.566;2022-10-16T13:54:45;1.70;;;0.60;;
25419;SDS011;13354;48.174;11.566;2022-10-16T13:57:12;0.98;;;0.60;;
25419;SDS011;13354;48.174;11.566;2022-10-16T13:59:39;1.60;;;0.80;;
25419;SDS011;13354;48.174;11.566;2022-10-16T14:02:20;0.70;;;0.60;;
25419;SDS011;13354;48.174;11.566;2022-10-16T14:04:55;2.35;;;0.52;;
25419;SDS011;13354;48.174;11.566;2022-10-16T14:07:26;1.35;;;0.65;;
25419;SDS011;13354;48.174;11.566;2022-10-16T14:09:54;1.40;;;0.68;;
25419;SDS011;13354;48.174;11.566;2022-10-16T14:12:20;2.33;;;0.80;;
25419;SDS011;13354;48.174;11.566;2022-10-16T14:14:47;0.77;;;0.70;;
25419;SDS011;13354;48.174;11.566;2022-10-16T14:17:19;1.27;;;0.70;;
25419;SDS011;13354;48.174;11.566;2022-10-16T14:19:48;0.70;;;0.70;;
25419;SDS011;13354;48.174;11.566;2022-10-16T14:22:21;1.33;;;0.73;;
25419;SDS011;13354;48.174;11.566;2022-10-16T14:28:31;0.60;;;0.60;;
25419;SDS011;13354;48.174;11.566;2022-10-16T14:31:00;1.33;;;0.60;;
25419;SDS011;13354;48.174;11.566;2022-10-16T14:38:35;2.70;;;0.82;;
25419;SDS011;13354;48.174;11.566;2022-10-16T14:41:02;1.00;;;0.80;;
25419;SDS011;13354;48.174;11.566;2022-10-16T14:43:31;2.47;;;0.60;;
25419;SDS011;13354;48.174;11.566;2022-10-16T14:45:59;2.35;;;0.68;;
25419;SDS011;13354;48.174;11.566;2022-10-16T14:48:25;5.43;;;0.80;;
25419;SDS011;13354;48.174;11.566;2022-10-16T14:50:50;3.92;;;0.70;;
25419;SDS011;13354;48.174;11.566;2022-10-16T14:53:16;2.97;;;1.02;;
25419;SDS011;13354;48.174;11.566;2022-10-16T14:55:41;3.63;;;1.50;;
25419;SDS011;13354;48.174;11.566;2022-10-16T14:58:21;3.58;;;1.10;;
25419;SDS011;13354;48.174;11.566;2022-10-16T15:00:47;1.52;;;1.02;;
25419;SDS011;13354;48.174;11.566;2022-10-16T15:03:14;3.63;;;0.82;;
25419;SDS011;13354;48.174;11.566;2022-10-16T15:05:39;5.97;;;0.80;;
25419;SDS011;13354;48.174;11.566;2022-10-16T15:08:05;3.75;;;0.70;;
25419;SDS011;13354;48.174;11.566;2022-10-16T15:10:30;1.73;;;0.70;;
25419;SDS011;13354;48.174;11.566;2022-10-16T15:12:58;6.97;;;0.93;;
25419;SDS011;13354;48.174;11.566;2022-10-16T15:17:49;2.27;;;1.13;;
25419;SDS011;13354;48.174;11.566;2022-10-16T15:20:17;1.50;;;1.00;;
25419;SDS011;13354;48.174;11.566;2022-10-16T15:22:43;1.92;;;1.00;;
25419;SDS011;13354;48.174;11.566;2022-10-16T15:25:12;2.83;;;1.20;;
25419;SDS011;13354;48.174;11.566;2022-10-16T15:27:42;2.90;;;1.00;;
25419;SDS011;13354;48.174;11.566;2022-10-16T15:30:07;2.37;;;1.40;;
25419;SDS011;13354;48.174;11.566;2022-10-16T15:32:33;1.90;;;1.15;;
25419;SDS011;13354;48.174;11.566;2022-10-16T15:34:58;4.13;;;1.40;;
25419;SDS011;13354;48.174;11.566;2022-10-16T15:37:23;3.27;;;1.20;;
25419;SDS011;13354;48.174;11.566;2022-10-16T15:39:49;3.97;;;1.40;;
25419;SDS011;13354;48.174;11.566;2022-10-16T15:42:15;2.80;;;1.20;;
25419;SDS011;13354;48.174;11.566;2022-10-16T15:44:40;1.53;;;0.90;;
25419;SDS011;13354;48.174;11.566;2022-10-16T15:47:06;1.60;;;1.02;;
25419;SDS011;13354;48.174;11.566;2022-10-16T15:49:32;5.93;;;1.23;;
25419;SDS011;13354;48.174;11.566;2022-10-16T15:51:57;4.80;;;1.20;;
25419;SDS011;13354;48.174;11.566;2022-10-16T15:54:22;1.97;;;0.93;;
25419;SDS011;13354;48.174;11.566;2022-10-16T15:56:48;1.80;;;0.95;;
25419;SDS011;13354;48.174;11.566;2022-10-16T15:59:13;2.95;;;1.05;;
25419;SDS011;13354;48.174;11.566;2022-10-16T16:01:39;1.95;;;0.98;;
25419;SDS011;13354;48.174;11.566;2022-10-16T16:04:04;3.67;;;1.27;;
25419;SDS011;13354;48.174;11.566;2022-10-16T16:06:29;1.92;;;1.30;;
25419;SDS011;13354;48.174;11.566;2022-10-16T16:08:55;3.15;;;1.40;;
25419;SDS011;13354;48.174;11.566;2022-10-16T16:11:20;3.88;;;1.67;;
25419;SDS011;13354;48.174;11.566;2022-10-16T16:13:47;1.88;;;1.40;;
25419;SDS011;13354;48.174;11.566;2022-10-16T16:16:13;3.07;;;1.43;;
25419;SDS011;13354;48.174;11.566;2022-10-16T16:18:41;1.40;;;1.30;;
25419;SDS011;13354;48.174;11.566;2022-10-16T16:21:06;4.78;;;1.60;;
25419;SDS011;13354;48.174;11.566;2022-10-16T16:23:34;2.05;;;1.20;;
25419;SDS011;13354;48.174;11.566;2022-10-16T16:26:06;3.22;;;1.60;;
25419;SDS011;13354;48.174;11.566;2022-10-16T16:28:53;4.32;;;1.60;;
25419;SDS011;13354;48.174;11.566;2022-10-16T16:31:20;2.40;;;1.75;;
25419;SDS011;13354;48.174;11.566;2022-10-16T16:33:48;3.70;;;1.60;;
25419;SDS011;13354;48.174;11.566;2022-10-16T16:36:13;5.73;;;1.60;;
25419;SDS011;13354;48.174;11.566;2022-10-16T16:38:39;2.40;;;1.73;;
25419;SDS011;13354;48.174;11.566;2022-10-16T16:41:14;4.70;;;1.90;;
25419;SDS011;13354;48.174;11.566;2022-10-16T16:43:45;3.33;;;1.77;;
25419;SDS011;13354;48.174;11.566;2022-10-16T16:46:12;3.47;;;2.10;;
25419;SDS011;13354;48.174;11.566;2022-10-16T16:48:38;4.30;;;2.08;;
25419;SDS011;13354;48.174;11.566;2022-10-16T16:53:29;3.45;;;1.90;;
25419;SDS011;13354;48.174;11.566;2022-10-16T16:55:55;6.75;;;2.00;;
25419;SDS011;13354;48.174;11.566;2022-10-16T16:58:20;4.13;;;1.63;;
25419;SDS011;13354;48.174;11.566;2022-10-16T17:00:46;2.60;;;1.90;;
25419;SDS011;13354;48.174;11.566;2022-10-16T17:03:12;4.82;;;2.30;;
25419;SDS011;13354;48.174;11.566;2022-10-16T17:05:37;4.15;;;2.00;;
25419;SDS011;13354;48.174;11.566;2022-10-16T17:08:06;3.20;;;1.75;;
25419;SDS011;13354;48.174;11.566;2022-10-16T17:10:32;2.00;;;1.50;;
25419;SDS011;13354;48.174;11.566;2022-10-16T17:12:57;2.85;;;1.40;;
25419;SDS011;13354;48.174;11.566;2022-10-16T17:15:22;2.53;;;1.50;;
25419;SDS011;13354;48.174;11.566;2022-10-16T17:17:47;2.27;;;1.40;;
25419;SDS011;13354;48.174;11.566;2022-10-16T17:20:13;4.65;;;1.40;;
25419;SDS011;13354;48.174;11.566;2022-10-16T17:22:39;3.85;;;1.65;;
25419;SDS011;13354;48.174;11.566;2022-10-16T17:25:04;1.63;;;1.30;;
25419;SDS011;13354;48.174;11.566;2022-10-16T17:27:31;3.50;;;2.10;;
25419;SDS011;13354;48.174;11.566;2022-10-16T17:29:58;6.40;;;2.50;;
25419;SDS011;13354;48.174;11.566;2022-10-16T17:32:23;4.97;;;1.98;;
25419;SDS011;13354;48.174;11.566;2022-10-16T17:34:48;3.63;;;1.97;;
25419;SDS011;13354;48.174;11.566;2022-10-16T17:37:14;10.07;;;2.03;;
25419;SDS011;13354;48.174;11.566;2022-10-16T17:39:39;6.20;;;1.70;;
25419;SDS011;13354;48.174;11.566;2022-10-16T17:42:04;9.80;;;2.70;;
25419;SDS011;13354;48.174;11.566;2022-10-16T17:44:30;10.38;;;2.55;;
25419;SDS011;13354;48.174;11.566;2022-10-16T17:46:55;8.00;;;2.25;;
25419;SDS011;13354;48.174;11.566;2022-10-16T17:49:21;11.05;;;2.55;;
25419;SDS011;13354;48.174;11.566;2022-10-16T17:51:50;7.63;;;2.20;;
25419;SDS011;13354;48.174;11.566;2022-10-16T17:54:16;8.40;;;2.47;;
25419;SDS011;13354;48.174;11.566;2022-10-16T17:56:41;3.17;;;1.63;;
25419;SDS011;13354;48.174;11.566;2022-10-16T17:59:08;3.15;;;1.80;;
25419;SDS011;13354;48.174;11.566;2022-10-16T18:01:36;2.88;;;1.70;;
25419;SDS011;13354;48.174;11.566;2022-10-16T18:04:08;3.17;;;1.50;;
25419;SDS011;13354;48.174;11.566;2022-10-16T18:06:37;5.35;;;1.50;;
25419;SDS011;13354;48.174;11.566;2022-10-16T18:09:03;2.65;;;1.80;;
25419;SDS011;13354;48.174;11.566;2022-10-16T18:11:29;2.42;;;1.60;;
25419;SDS011;13354;48.174;11.566;2022-10-16T18:13:55;2.03;;;1.80;;
25419;SDS011;13354;48.174;11.566;2022-10-16T18:16:23;5.65;;;1.77;;
25419;SDS011;13354;48.174;11.566;2022-10-16T18:18:49;3.88;;;1.88;;
25419;SDS011;13354;48.174;11.566;2022-10-16T18:21:15;3.20;;;1.90;;
25419;SDS011;13354;48.174;11.566;2022-10-16T18:23:42;3.47;;;1.83;;
25419;SDS011;13354;48.174;11.566;2022-10-16T18:26:09;3.08;;;2.00;;
25419;SDS011;13354;48.174;11.566;2022-10-16T18:28:35;9.15;;;2.05;;
25419;SDS011;13354;48.174;11.566;2022-10-16T18:31:05;4.50;;;2.22;;
25419;SDS011;13354;48.174;11.566;2022-10-16T18:33:38;13.82;;;10.40;;
25419;SDS011;13354;48.174;11.566;2022-10-16T18:36:05;4.97;;;3.70;;
25419;SDS011;13354;48.174;11.566;2022-10-16T18:38:32;4.47;;;2.80;;
25419;SDS011;13354;48.174;11.566;2022-10-16T18:40:59;10.15;;;2.75;;
25419;SDS011;13354;48.174;11.566;2022-10-16T18:43:29;3.80;;;2.58;;
25419;SDS011;13354;48.174;11.566;2022-10-16T18:48:21;3.58;;;2.65;;
25419;SDS011;13354;48.174;11.566;2022-10-16T18:50:47;4.47;;;2.80;;
25419;SDS011;13354;48.174;11.566;2022-10-16T18:53:12;3.70;;;2.58;;
25419;SDS011;13354;48.174;11.566;2022-10-16T18:55:38;3.75;;;2.38;;
25419;SDS011;13354;48.174;11.566;2022-10-16T18:58:04;6.50;;;2.60;;
25419;SDS011;13354;48.174;11.566;2022-10-16T19:00:29;6.32;;;3.08;;
25419;SDS011;13354;48.174;11.566;2022-10-16T19:02:54;3.57;;;2.97;;
25419;SDS011;13354;48.174;11.566;2022-10-16T19:05:20;5.20;;;3.05;;
25419;SDS011;13354;48.174;11.566;2022-10-16T19:07:45;3.22;;;2.80;;
25419;SDS011;13354;48.174;11.566;2022-10-16T19:10:12;4.45;;;2.95;;
25419;SDS011;13354;48.174;11.566;2022-10-16T19:12:37;4.35;;;3.53;;
25419;SDS011;13354;48.174;11.566;2022-10-16T19:15:03;7.30;;;3.70;;
25419;SDS011;13354;48.174;11.566;2022-10-16T19:17:28;6.05;;;3.60;;
25419;SDS011;13354;48.174;11.566;2022-10-16T19:19:54;4.38;;;3.17;;
25419;SDS011;13354;48.174;11.566;2022-10-16T19:22:20;6.65;;;3.65;;
25419;SDS011;13354;48.174;11.566;2022-10-16T19:27:20;5.90;;;3.22;;
25419;SDS011;13354;48.174;11.566;2022-10-16T19:29:45;6.30;;;3.45;;
25419;SDS011;13354;48.174;11.566;2022-10-16T19:32:10;7.13;;;3.65;;
25419;SDS011;13354;48.174;11.566;2022-10-16T19:34:36;4.17;;;2.93;;
25419;SDS011;13354;48.174;11.566;2022-10-16T19:37:01;5.73;;;3.27;;
25419;SDS011;13354;48.174;11.566;2022-10-16T19:39:26;7.47;;;3.25;;
25419;SDS011;13354;48.174;11.566;2022-10-16T19:41:52;7.95;;;5.20;;
25419;SDS011;13354;48.174;11.566;2022-10-16T19:44:17;7.63;;;5.00;;
25419;SDS011;13354;48.174;11.566;2022-10-16T19:46:43;9.10;;;3.83;;
25419;SDS011;13354;48.174;11.566;2022-10-16T19:49:10;7.75;;;3.50;;
25419;SDS011;13354;48.174;11.566;2022-10-16T19:51:37;6.25;;;3.92;;
25419;SDS011;13354;48.174;11.566;2022-10-16T19:54:05;6.00;;;4.47;;
25419;SDS011;13354;48.174;11.566;2022-10-16T19:56:32;6.18;;;3.90;;
25419;SDS011;13354;48.174;11.566;2022-10-16T19:58:59;6.03;;;3.60;;
25419;SDS011;13354;48.174;11.566;2022-10-16T20:01:25;4.82;;;3.50;;
25419;SDS011;13354;48.174;11.566;2022-10-16T20:03:52;9.25;;;4.55;;
25419;SDS011;13354;48.174;11.566;2022-10-16T20:06:18;8.23;;;3.75;;
25419;SDS011;13354;48.174;11.566;2022-10-16T20:08:44;8.80;;;3.58;;
25419;SDS011;13354;48.174;11.566;2022-10-16T20:11:13;5.32;;;3.30;;
25419;SDS011;13354;48.174;11.566;2022-10-16T20:13:40;6.65;;;3.25;;
25419;SDS011;13354;48.174;11.566;2022-10-16T20:16:06;4.65;;;3.22;;
25419;SDS011;13354;48.174;11.566;2022-10-16T20:18:31;4.93;;;3.30;;
25419;SDS011;13354;48.174;11.566;2022-10-16T20:20:57;9.05;;;3.65;;
25419;SDS011;13354;48.174;11.566;2022-10-16T20:23:22;7.93;;;3.22;;
25419;SDS011;13354;48.174;11.566;2022-10-16T20:25:48;5.07;;;3.47;;
25419;SDS011;13354;48.174;11.566;2022-10-16T20:28:16;4.90;;;3.13;;
25419;SDS011;13354;48.174;11.566;2022-10-16T20:30:44;4.82;;;3.13;;
25419;SDS011;13354;48.174;11.566;2022-10-16T20:33:12;4.80;;;3.22;;
25419;SDS011;13354;48.174;11.566;2022-10-16T20:35:42;3.88;;;3.13;;
25419;SDS011;13354;48.174;11.566;2022-10-16T20:38:09;4.95;;;3.20;;
25419;SDS011;13354;48.174;11.566;2022-10-16T20:40:37;10.30;;;3.33;;
25419;SDS011;13354;48.174;11.566;2022-10-16T20:43:03;7.47;;;3.58;;
25419;SDS011;13354;48.174;11.566;2022-10-16T20:45:29;6.00;;;3.30;;
25419;SDS011;13354;48.174;11.566;2022-10-16T20:47:55;10.52;;;3.55;;
25419;SDS011;13354;48.174;11.566;2022-10-16T20:50:21;7.47;;;3.30;;
25419;SDS011;13354;48.174;11.566;2022-10-16T20:52:47;5.82;;;3.30;;
25419;SDS011;13354;48.174;11.566;2022-10-16T20:55:12;5.28;;;3.03;;
25419;SDS011;13354;48.174;11.566;2022-10-16T20:57:39;4.90;;;3.10;;
25419;SDS011;13354;48.174;11.566;2022-10-16T21:00:05;4.43;;;3.13;;
25419;SDS011;13354;48.174;11.566;2022-10-16T21:02:31;3.97;;;3.35;;
25419;SDS011;13354;48.174;11.566;2022-10-16T21:04:57;6.75;;;3.53;;
25419;SDS011;13354;48.174;11.566;2022-10-16T21:07:22;7.47;;;3.33;;
25419;SDS011;13354;48.174;11.566;2022-10-16T21:09:47;6.10;;;3.10;;
25419;SDS011;13354;48.174;11.566;2022-10-16T21:12:12;6.67;;;3.13;;
25419;SDS011;13354;48.174;11.566;2022-10-16T21:14:38;4.63;;;2.88;;
25419;SDS011;13354;48.174;11.566;2022-10-16T21:17:03;12.00;;;3.23;;
25419;SDS011;13354;48.174;11.566;2022-10-16T21:19:29;7.28;;;3.25;;
25419;SDS011;13354;48.174;11.566;2022-10-16T21:21:54;3.63;;;3.15;;
25419;SDS011;13354;48.174;11.566;2022-10-16T21:24:20;7.60;;;3.50;;
25419;SDS011;13354;48.174;11.566;2022-10-16T21:26:45;7.25;;;3.70;;
25419;SDS011;13354;48.174;11.566;2022-10-16T21:29:11;5.53;;;3.60;;
25419;SDS011;13354;48.174;11.566;2022-10-16T21:31:36;6.57;;;3.40;;
25419;SDS011;13354;48.174;11.566;2022-10-16T21:34:02;6.47;;;3.75;;
25419;SDS011;13354;48.174;11.566;2022-10-16T21:36:28;3.33;;;3.00;;
25419;SDS011;13354;48.174;11.566;2022-10-16T21:38:55;4.70;;;3.00;;
25419;SDS011;13354;48.174;11.566;2022-10-16T21:41:25;5.43;;;3.20;;
25419;SDS011;13354;48.174;11.566;2022-10-16T21:43:52;7.43;;;3.72;;
25419;SDS011;13354;48.174;11.566;2022-10-16T21:46:19;5.35;;;3.50;;
25419;SDS011;13354;48.174;11.566;2022-10-16T21:48:45;5.78;;;3.10;;
25419;SDS011;13354;48.174;11.566;2022-10-16T21:51:11;7.53;;;3.58;;
25419;SDS011;13354;48.174;11.566;2022-10-16T21:53:37;3.97;;;3.30;;
25419;SDS011;13354;48.174;11.566;2022-10-16T21:56:03;4.03;;;3.30;;
25419;SDS011;13354;48.174;11.566;2022-10-16T21:58:31;6.65;;;3.00;;
25419;SDS011;13354;48.174;11.566;2022-10-16T22:00:57;5.45;;;3.17;;
25419;SDS011;13354;48.174;11.566;2022-10-16T22:03:22;6.28;;;3.45;;
25419;SDS011;13354;48.174;11.566;2022-10-16T22:05:48;4.55;;;3.53;;
25419;SDS011;13354;48.174;11.566;2022-10-16T22:08:13;6.45;;;3.42;;
25419;SDS011;13354;48.174;11.566;2022-10-16T22:10:40;7.18;;;3.65;;
25419;SDS011;13354;48.174;11.566;2022-10-16T22:13:05;5.32;;;3.50;;
25419;SDS011;13354;48.174;11.566;2022-10-16T22:15:30;9.15;;;4.18;;
25419;SDS011;13354;48.174;11.566;2022-10-16T22:17:56;6.80;;;3.67;;
25419;SDS011;13354;48.174;11.566;2022-10-16T22:20:21;6.80;;;3.55;;
25419;SDS011;13354;48.174;11.566;2022-10-16T22:22:46;6.50;;;4.00;;
25419;SDS011;13354;48.174;11.566;2022-10-16T22:25:12;4.07;;;3.28;;
25419;SDS011;13354;48.174;11.566;2022-10-16T22:27:37;5.72;;;3.45;;
25419;SDS011;13354;48.174;11.566;2022-10-16T22:30:02;9.25;;;3.67;;
25419;SDS011;13354;48.174;11.566;2022-10-16T22:32:28;6.70;;;3.13;;
25419;SDS011;13354;48.174;11.566;2022-10-16T22:34:53;8.67;;;3.47;;
25419;SDS011;13354;48.174;11.566;2022-10-16T22:37:18;5.97;;;3.55;;
25419;SDS011;13354;48.174;11.566;2022-10-16T22:39:44;6.25;;;3.63;;
25419;SDS011;13354;48.174;11.566;2022-10-16T22:42:09;3.53;;;2.92;;
25419;SDS011;13354;48.174;11.566;2022-10-16T22:44:34;4.45;;;3.20;;
25419;SDS011;13354;48.174;11.566;2022-10-16T22:46:59;5.63;;;3.03;;
25419;SDS011;13354;48.174;11.566;2022-10-16T22:49:25;5.78;;;3.35;;
25419;SDS011;13354;48.174;11.566;2022-10-16T22:51:50;6.72;;;3.80;;
25419;SDS011;13354;48.174;11.566;2022-10-16T22:54:15;6.38;;;3.13;;
25419;SDS011;13354;48.174;11.566;2022-10-16T22:56:41;4.40;;;3.40;;
25419;SDS011;13354;48.174;11.566;2022-10-16T22:59:06;3.67;;;3.10;;
25419;SDS011;13354;48.174;11.566;2022-10-16T23:01:34;6.70;;;3.00;;
25419;SDS011;13354;48.174;11.566;2022-10-16T23:04:03;6.15;;;2.83;;
25419;SDS011;13354;48.174;11.566;2022-10-16T23:06:29;5.95;;;3.00;;
25419;SDS011;13354;48.174;11.566;2022-10-16T23:08:57;3.13;;;2.80;;
25419;SDS011;13354;48.174;11.566;2022-10-16T23:11:24;7.18;;;3.20;;
25419;SDS011;13354;48.174;11.566;2022-10-16T23:13:50;4.68;;;2.78;;
25419;SDS011;13354;48.174;11.566;2022-10-16T23:16:16;3.75;;;3.13;;
25419;SDS011;13354;48.174;11.566;2022-10-16T23:18:43;4.40;;;2.80;;
25419;SDS011;13354;48.174;11.566;2022-10-16T23:21:10;6.30;;;2.90;;
25419;SDS011;13354;48.174;11.566;2022-10-16T23:23:37;7.55;;;3.25;;
25419;SDS011;13354;48.174;11.566;2022-10-16T23:26:23;5.90;;;2.90;;
25419;SDS011;13354;48.174;11.566;2022-10-16T23:28:49;4.38;;;2.88;;
25419;SDS011;13354;48.174;11.566;2022-10-16T23:31:15;3.78;;;3.08;;
25419;SDS011;13354;48.174;11.566;2022-10-16T23:33:41;4.20;;;2.90;;
25419;SDS011;13354;48.174;11.566;2022-10-16T23:36:09;3.58;;;2.90;;
25419;SDS011;13354;48.174;11.566;2022-10-16T23:38:36;8.77;;;3.00;;
25419;SDS011;13354;48.174;11.566;2022-10-16T23:41:01;4.60;;;2.85;;
25419;SDS011;13354;48.174;11.566;2022-10-16T23:43:27;6.25;;;2.83;;
25419;SDS011;13354;48.174;11.566;2022-10-16T23:45:53;6.97;;;2.97;;
25419;SDS011;13354;48.174;11.566;2022-10-16T23:48:18;3.92;;;2.70;;
25419;SDS011;13354;48.174;11.566;2022-10-16T23:50:44;4.25;;;2.55;;
25419;SDS011;13354;48.174;11.566;2022-10-16T23:53:09;3.65;;;2.70;;
25419;SDS011;13354;48.174;11.566;2022-10-16T23:55:34;6.15;;;3.30;;
25419;SDS011;13354;48.174;11.566;2022-10-16T23:58:00;3.70;;;2.65;;
